Terminal Aerodrome Forecast
Issued by NWS Cleveland, OH

Home | Current Version | Previous Version | Text Only | Print | Product List | Glossary On
Versions: 1 2 3 4 5 6 7 8 9 10 11 12 13 14 15 16 17 18 19 20 21 22 23 24 25 26 27 28 29 30 31
000
FTUS41 KCLE 230317 AAB
TAFCLE
TAF AMD
KCLE 230317Z 2303/2406 02005KT P6SM OVC100
     FM230800 05008KT 5SM BR VCSH OVC025
     FM231000 04010KT 3SM -RA BR OVC008
     FM231400 04010KT 2SM -RA BR OVC004=

USA.gov is the U.S. government's official web portal to all federal, state and local government web resources and services.